Report METAR

LIPF - Ferrara (aut), Italy
Distance from station: SSO 23km
Dati ricevuti: 17/01/2018 12:55
Mist, Parz. nuvoloso
Mist, Parz. nuvoloso
 Vento da O
Vento: O 28 km/h
Temperatura: 9°C
Temperatura Vento: 6°C
P.to Rugiada: 5°C
Umidità: 76%
Barometro: 1001 hPa
Summary: Mist
Nuvole: Parz. nuvoloso
Visibility: 3 km
2018/01/17 11:55 LIPF 171155Z 27015KT 3000 BR NSC 09/05 Q1001
LIPU - Padova (civ/It-A, Italy
Distance from station: N 43km
Dati ricevuti: 17/01/2018 08:00
DATI Obsoleti
Mist, Parz. nuvoloso
Mist, Parz. nuvoloso
 Vento da OSO
Vento: OSO 7 km/h
Temperatura: 4°C
Temperatura Vento: 2°C
P.to Rugiada: 3°C
Umidità: 93%
Barometro: 998 hPa
Summary: Mist
Nuvole: Parz. nuvoloso
Visibility: 4 km
Cloud details: Parz. nuvoloso 914 m
2018/01/17 07:00 LIPU 170700Z 24004KT 200V280 3500 BR SCT030 04/03 Q0998